WetterOnline ( https://www.wetteronline.de )

Wetter aktuell Havelberg

Aktuelles Wetter: Seehausen (23m)

6-stündlich | Neueste Meldungen
Ortszeit Temperatur Wetter
So, 15.09. 8:00 11.9° C -
So, 15.09. 2:00 6.8° C wolkig
Sa, 14.09. 20:00 14.5° C wolkig
Sa, 14.09. 14:00 17.5° C leicht bewölkt
Sa, 14.09. 8:00 8.0° C leicht bewölkt
Sa, 14.09. 2:00 8.9° C wolkenlos
Fr, 13.09. 20:00 16.4° C bedeckt
Fr, 13.09. 14:00 20.7° C bewölkt
Ortszeit Temperatur Wetter
So, 15.09. 12:00 19.1° C wolkig
So, 15.09. 11:50 19.1° C wolkig
So, 15.09. 11:40 18.7° C wolkig
So, 15.09. 11:30 18.8° C leicht bewölkt
So, 15.09. 11:20 18.8° C leicht bewölkt
So, 15.09. 11:10 18.6° C leicht bewölkt
So, 15.09. 11:00 17.7° C leicht bewölkt
So, 15.09. 10:30 17.0° C leicht bewölkt
So, 15.09. 10:00 15.8° C wolkig
So, 15.09. 9:30 14.0° C wolkig
So, 15.09. 9:00 12.6° C wolkig
Ortszeit Relative Feuchte Sichtweite
So, 15.09. 8:00 65% 70 km
So, 15.09. 2:00 79% 35 km
Sa, 14.09. 20:00 51% 70 km
Sa, 14.09. 14:00 41% 70 km
Sa, 14.09. 8:00 91% 21 km
Sa, 14.09. 2:00 83% 55 km
Fr, 13.09. 20:00 51% 70 km
Fr, 13.09. 14:00 52% 18 km
Ortszeit Relative Feuchte Sichtweite
So, 15.09. 12:00 41% 35 km
So, 15.09. 11:50 41% -
So, 15.09. 11:40 41% -
So, 15.09. 11:30 42% 30 km
So, 15.09. 11:20 42% -
So, 15.09. 11:10 43% -
So, 15.09. 11:00 46% 45 km
So, 15.09. 10:30 48% 50 km
So, 15.09. 10:00 53% 65 km
So, 15.09. 9:30 60% 60 km
So, 15.09. 9:00 64% 60 km
Ortszeit Niederschlagsmenge Niederschlagsart
So, 15.09. 8:00 0.0 l/m2 in 12 Std. -
So, 15.09. 2:00 0.0 l/m2 in 6 Std. -
Sa, 14.09. 20:00 0.0 l/m2 in 12 Std. -
Sa, 14.09. 14:00 0.0 l/m2 in 6 Std. -
Sa, 14.09. 8:00 0.0 l/m2 in 12 Std. -
Sa, 14.09. 2:00 0.0 l/m2 in 6 Std. -
Fr, 13.09. 20:00 0.1 l/m2 in 12 Std. -
Fr, 13.09. 14:00 0.1 l/m2 in 6 Std. Regen
Ortszeit Niederschlagsmenge Niederschlagsart
So, 15.09. 12:00 0.0 l/m2 in 1 Std. -
So, 15.09. 11:50 keine Meldung -
So, 15.09. 11:40 keine Meldung -
So, 15.09. 11:30 0.0 l/m2 in 1 Std. -
So, 15.09. 11:20 keine Meldung -
So, 15.09. 11:10 keine Meldung -
So, 15.09. 11:00 0.0 l/m2 in 1 Std. -
So, 15.09. 10:30 0.0 l/m2 in 1 Std. -
So, 15.09. 10:00 0.0 l/m2 in 1 Std. -
So, 15.09. 9:30 0.0 l/m2 in 1 Std. -
So, 15.09. 9:00 0.0 l/m2 in 1 Std. -
Ortszeit Stärke Spitze Richtung
km/h Bft. km/h Grad Sektor
So, 15.09. 8:00 15 3 22 220° SW
So, 15.09. 2:00 7 2 11 170° S
Sa, 14.09. 20:00 4 1 22 250° W
Sa, 14.09. 14:00 7 2 22 350° N
Sa, 14.09. 8:00 6 1 15 280° W
Sa, 14.09. 2:00 11 2 22 260° W
Fr, 13.09. 20:00 13 3 41 300° NW
Fr, 13.09. 14:00 33 5 48 330° NW
Ortszeit Stärke Spitze Richtung
km/h Bft. km/h Grad Sektor
So, 15.09. 12:00 22 4 43 260° W
So, 15.09. 11:50 22 4 - 260° W
So, 15.09. 11:40 29 5 - 260° W
So, 15.09. 11:30 29 5 43 260° W
So, 15.09. 11:20 29 5 - 260° W
So, 15.09. 11:10 29 5 - 260° W
So, 15.09. 11:00 24 4 43 260° W
So, 15.09. 10:30 25 4 43 250° W
So, 15.09. 10:00 14 3 25 230° SW
So, 15.09. 9:30 14 3 22 230° SW
So, 15.09. 9:00 15 3 28 230° SW
Ortszeit Untergrenze Bedeckung Gattung
total tief tief mittel hoch
So, 15.09. 8:00 - - - - - -
So, 15.09. 2:00 10500 m 8/8 0/8 - - -
Sa, 14.09. 20:00 10500 m 8/8 0/8 - - -
Sa, 14.09. 14:00 9000 m 3/8 0/8 - - -
Sa, 14.09. 8:00 8400 m 4/8 0/8 - - -
Sa, 14.09. 2:00 - 0/8 0/8 - - -
Fr, 13.09. 20:00 6900 m 8/8 8/8 - - -
Fr, 13.09. 14:00 1110 m 7/8 7/8 - - -
Ortszeit Bedeckungsgrad in Achtel und Wolkenuntergrenze
So, 15.09. 12:00 5(7200m) 8(7800m) 8(8400m)
So, 15.09. 11:50 5(7200m) 8(7800m) 8(8400m)
So, 15.09. 11:40 8(7500m) 8(8400m)
So, 15.09. 11:30 4(7200m) 5(8400m) 6(9000m)
So, 15.09. 11:20 4(7200m) 5(8400m) 6(9000m)
So, 15.09. 11:10 3(8400m) 5(9000m)
So, 15.09. 11:00 3(8100m) 4(12000m)
So, 15.09. 10:30 2(9000m) 4(9000m) 6(10500m)
So, 15.09. 10:00 6(9000m) 7(9000m) 7(9000m)
So, 15.09. 9:30 8(9000m) 8(10500m) 8(10500m)
So, 15.09. 9:00 1(8100m) 6(9000m) 8(10500m)
Ortszeit Luftdruck NN (hPa) Tendenz (hPa in 3 Std.)
So, 15.09. 8:00 1022 - 2,2
So, 15.09. 2:00 1026 - 3,0
Sa, 14.09. 20:00 1030 - 1,2
Sa, 14.09. 14:00 1033 - 1,8
Sa, 14.09. 8:00 1035 + 0,5
Sa, 14.09. 2:00 1035 + 1,0
Fr, 13.09. 20:00 1032 + 1,4
Fr, 13.09. 14:00 1029 + 2,6
Ortszeit Luftdruck NN (hPa) Tendenz (hPa in 3 Std.)
So, 15.09. 12:00 1020 - 1,4
So, 15.09. 11:50 1020 keine Meldung
So, 15.09. 11:40 1020 keine Meldung
So, 15.09. 11:30 1020 - 1,4
So, 15.09. 11:20 1020 keine Meldung
So, 15.09. 11:10 1020 keine Meldung
So, 15.09. 11:00 1021 - 1,0
So, 15.09. 10:30 1021 - 1,3
So, 15.09. 10:00 1021 - 1,4
So, 15.09. 9:30 1021 - 1,2
So, 15.09. 9:00 1021 - 1,4
Ortszeit Schneehöhe (cm)
So, 15.09. 8:00 -
So, 15.09. 2:00 -
Sa, 14.09. 20:00 -
Sa, 14.09. 14:00 -
Sa, 14.09. 8:00 -
Sa, 14.09. 2:00 -
Fr, 13.09. 20:00 -
Fr, 13.09. 14:00 -
Ortszeit Schneehöhe (cm)
So, 15.09. 12:00 -
So, 15.09. 11:50 -
So, 15.09. 11:40 -
So, 15.09. 11:30 -
So, 15.09. 11:20 -
So, 15.09. 11:10 -
So, 15.09. 11:00 -
So, 15.09. 10:30 -
So, 15.09. 10:00 -
So, 15.09. 9:30 -
So, 15.09. 9:00 -
Link zu dieser Seite / Seite empfehlen

Das Wetter in ...